Flight Track Log - Related Links

Times and Time Zones

All times are in EDT time to prevent confusion due to time zone crossing. See the FLG3350 flight status page for this flight to view local times or setup timezone preferences in your user account.

Time Position Orientation Groundspeed Altitude Reporting Facility
EDT Latitude Longitude Course Direction KTS MPH feet Rate Location/Type
Sun 09:46:25 AM 35.0500 -89.9833 270° West 163 188 1,100  Level KMEM
Sun 09:46:50 AM 35.0667 -89.9833 360° North 169 194 1,900 1,906 Climbing KMEM
Sun 09:47:50 AM 35.1167 -90.0167 331° Northwest 219 252 3,800 1,744 Climbing KMEM
Sun 09:48:47 AM 35.1500 -90.1000 296° West 290 334 5,300 2,100 Climbing KMEM
Sun 09:49:00 AM 35.0227 -90.4747 268° West  Level FlightAware Approximate
Sun 09:49:50 AM 35.1333 -90.2000 259° West 294 338 8,000  Level KMEM
Sun 09:50:00 AM 35.0179 -90.6016 267° West  Level FlightAware Approximate
Sun 09:51:00 AM 35.0167 -90.7287 270° West  Level FlightAware Approximate
Sun 09:51:10 AM 35.1094 -90.3342 258° West 325 374 10,400  Level Memphis Center
Sun 09:52:10 AM 35.0886 -90.4511 258° West 343 395 11,800 1,700 Climbing Memphis Center
Sun 09:53:10 AM 35.0656 -90.5753 257° West 371 427 13,800 2,050 Climbing Memphis Center
Sun 09:54:10 AM 35.0444 -90.7019 259° West 377 434 15,900 2,000 Climbing Memphis Center
Sun 09:55:10 AM 35.0272 -90.8286 261° West 382 440 17,800 1,600 Climbing Memphis Center
Sun 09:56:10 AM 35.0247 -90.9758 269° West 387 445 19,100 1,950 Climbing Memphis Center
Sun 09:57:10 AM 35.0281 -91.1028 272° West 381 438 21,700 2,450 Climbing Memphis Center
Sun 09:58:10 AM 35.0294 -91.2219 271° West 369 425 24,000 1,700 Climbing Memphis Center
Sun 09:59:10 AM 35.0744 -91.3314 297° West 346 398 25,100 1,100 Climbing Memphis Center
Sun 10:00:10 AM 35.1217 -91.4411 298° West 364 419 26,200 1,050 Climbing Memphis Center
Sun 10:01:10 AM 35.1706 -91.5561 298° West 369 425 27,200 900 Climbing Memphis Center
Sun 10:02:10 AM 35.2217 -91.6711 299° West 381 438 28,000 800 Climbing Memphis Center
Sun 10:03:10 AM 35.2744 -91.7914 298° West 392 451 28,800 800 Climbing Memphis Center
Sun 10:04:10 AM 35.3272 -91.9144 298° West 392 451 29,600 800 Climbing Memphis Center
Sun 10:05:10 AM 35.3819 -92.0431 298° West 404 465 30,400 800 Climbing Memphis Center
Sun 10:06:10 AM 35.4367 -92.1664 299° West 410 472 31,200 800 Climbing Memphis Center
Sun 10:07:10 AM 35.4889 -92.2925 297° West 415 478 32,000 850 Climbing Memphis Center
Sun 10:08:10 AM 35.5431 -92.4186 298° West 415 478 32,900 700 Climbing Memphis Center
Sun 10:09:10 AM 35.5953 -92.5450 297° West 415 478 33,400 450 Climbing Memphis Center
Sun 10:10:10 AM 35.6492 -92.6717 298° West 415 478 33,800 300 Climbing Memphis Center
Sun 10:11:10 AM 35.7053 -92.8011 298° West 415 478 34,000 100 Climbing Memphis Center
Sun 10:12:10 AM 35.7589 -92.9331 297° West 420 483 34,000  Level Memphis Center
Sun 10:13:10 AM 35.8144 -93.0656 297° West 426 490 34,000  Level Memphis Center
Sun 10:14:10 AM 35.8658 -93.1953 296° West 426 490 34,000  Level Memphis Center
Sun 10:15:10 AM 35.9211 -93.3253 298° West 426 490 34,000  Level Memphis Center
Sun 10:16:10 AM 35.9742 -93.4581 296° West 431 496 34,000  Level Memphis Center
Sun 10:17:10 AM 36.0272 -93.5883 297° West 431 496 34,000  Level Memphis Center
Sun 10:18:10 AM 36.0800 -93.7189 297° West 426 490 34,000  Level Memphis Center
Sun 10:19:10 AM 36.1328 -93.8469 297° West 426 490 34,000  Level Memphis Center
Sun 10:20:10 AM 36.1875 -93.9778 297° West 426 490 34,000  Level Memphis Center
Sun 10:22:34 AM 36.3014 -94.2956 294° West 429 494 34,000  Level Kansas City Center
Sun 10:23:36 AM 36.3436 -94.4331 291° West 428 493 34,000  Level Kansas City Center
Sun 10:24:38 AM 36.3869 -94.5700 291° West 427 491 34,000  Level Kansas City Center
Sun 10:25:39 AM 36.4294 -94.7081 291° West 429 494 34,000  Level Kansas City Center
Sun 10:26:40 AM 36.4708 -94.8461 290° West 428 493 34,000  Level Kansas City Center
Sun 10:27:40 AM 36.5147 -94.9831 292° West 428 493 34,000  Level Kansas City Center
Sun 10:28:43 AM 36.5631 -95.1231 293° West 431 496 34,000  Level Kansas City Center
Sun 10:29:44 AM 36.6175 -95.2808 293° West 428 493 34,000  Level Kansas City Center
Sun 10:30:46 AM 36.6633 -95.4164 293° West 430 495 34,000  Level Kansas City Center
Sun 10:31:46 AM 36.7086 -95.5514 293° West 429 494 34,000  Level Kansas City Center
Sun 10:32:46 AM 36.7544 -95.6867 293° West 427 491 34,000  Level Kansas City Center
Sun 10:33:48 AM 36.8008 -95.8222 293° West 427 491 34,000  Level Kansas City Center
Sun 10:34:49 AM 36.8458 -95.9581 293° West 425 489 34,000  Level Kansas City Center
Sun 10:35:53 AM 36.8911 -96.0950 292° West 426 490 34,000  Level Kansas City Center
Sun 10:36:53 AM 36.9447 -96.2586 292° West 424 488 34,000  Level Kansas City Center
Sun 10:37:54 AM 36.9914 -96.3944 293° West 425 489 34,000  Level Kansas City Center
Sun 10:38:57 AM 37.0369 -96.5333 292° West 429 494 34,000  Level Kansas City Center
Sun 10:39:59 AM 37.0808 -96.6706 292° West 426 490 34,000  Level Kansas City Center
Sun 10:41:00 AM 37.1211 -96.7917 293° West 427 491 34,000  Level Kansas City Center
Sun 10:42:02 AM 37.1750 -96.9558 292° West 425 489 34,000  Level Kansas City Center
Sun 10:43:02 AM 37.2192 -97.0931 292° West 424 488 34,000  Level Kansas City Center
Sun 10:44:04 AM 37.2631 -97.2308 292° West 425 489 34,000  Level Kansas City Center
Sun 10:45:05 AM 37.3072 -97.3692 292° West 426 490 34,000  Level Kansas City Center
Sun 10:46:08 AM 37.3508 -97.5100 291° West 429 494 34,000  Level Kansas City Center
Sun 10:47:09 AM 37.3956 -97.6511 292° West 433 498 34,000  Level Kansas City Center
Sun 10:48:10 AM 37.4397 -97.7917 292° West 430 495 34,000  Level Kansas City Center
Sun 10:49:13 AM 37.4828 -97.9314 291° West 428 493 34,000  Level Kansas City Center
Sun 10:50:14 AM 37.5267 -98.0706 292° West 426 490 34,000  Level Kansas City Center
Sun 10:51:16 AM 37.5689 -98.2108 291° West 424 488 34,000  Level Kansas City Center
Sun 10:52:17 AM 37.6217 -98.3775 292° West 424 488 34,000  Level Kansas City Center
Sun 10:53:18 AM 37.6633 -98.5172 291° West 424 488 34,000  Level Kansas City Center
Sun 10:54:19 AM 37.7056 -98.6572 291° West 425 489 34,000  Level Kansas City Center
Sun 10:55:22 AM 37.7483 -98.7961 291° West 423 487 34,000  Level Kansas City Center
Sun 10:56:23 AM 37.7906 -98.9344 291° West 422 486 34,000  Level Kansas City Center
Sun 10:57:25 AM 37.8325 -99.0742 291° West 423 487 34,000  Level Kansas City Center
Sun 10:58:28 AM 37.8733 -99.2111 291° West 419 482 34,000  Level Kansas City Center
Sun 10:59:30 AM 37.9150 -99.3489 291° West 418 481 34,000  Level Kansas City Center
Sun 11:00:31 AM 37.9589 -99.4975 291° West 419 482 34,000  Level Kansas City Center
Sun 11:01:31 AM 38.0031 -99.6511 290° West 417 480 34,000  Level Kansas City Center
Sun 11:02:35 AM 38.0406 -99.7792 290° West 410 472 34,000  Level Kansas City Center
Sun 11:03:36 AM 38.0850 -99.9292 291° West 407 468 34,000  Level Kansas City Center
Sun 11:04:36 AM 38.1217 -100.0572 290° West 406 467 34,000  Level Kansas City Center
Sun 11:05:40 AM 38.1642 -100.2069 290° West 405 466 34,000  Level Kansas City Center
Sun 11:06:40 AM 38.2011 -100.3356 290° West 406 467 34,000  Level Kansas City Center
Sun 11:07:44 AM 38.2436 -100.4858 290° West 407 468 34,000  Level Kansas City Center
Sun 11:08:44 AM 38.2803 -100.6150 290° West 408 470 34,000  Level Kansas City Center
Sun 11:09:33 AM 38.3106 -100.7211 290° West 408 470 34,000  Level Denver Center
Sun 11:10:35 AM 38.3525 -100.8725 290° West 407 468 34,000  Level Denver Center
Sun 11:11:37 AM 38.3889 -101.0031 290° West 410 472 34,000  Level Denver Center
Sun 11:12:39 AM 38.4303 -101.1533 289° West 405 466 34,000  Level Denver Center
Sun 11:13:41 AM 38.4669 -101.2847 290° West 410 472 34,000  Level Denver Center
Sun 11:14:42 AM 38.4972 -101.3933 290° West 410 472 34,000  Level Denver Center
Sun 11:15:44 AM 38.5444 -101.5692 289° West 411 473 34,000  Level Denver Center
Sun 11:16:46 AM 38.5861 -101.7236 289° West 412 474 34,000  Level Denver Center
Sun 11:17:48 AM 38.6222 -101.8556 289° West 412 474 34,000  Level Denver Center
Sun 11:18:50 AM 38.6639 -102.0097 289° West 411 473 34,000  Level Denver Center
Sun 11:19:52 AM 38.7183 -102.1292 300° West 408 470 34,000  Level Denver Center
Sun 11:20:54 AM 38.7914 -102.2356 311° West 415 478 34,000  Level Denver Center
Sun 11:21:56 AM 38.8789 -102.3578 313° West 415 478 34,000  Level Denver Center
Sun 11:23:10 AM 38.9522 -102.4642 312° West 415 478 34,000  Level Denver Center
Sun 11:24:12 AM 39.0525 -102.6042 313° West 417 480 34,000  Level Denver Center
Sun 11:25:14 AM 39.1389 -102.7275 312° West 416 479 34,000  Level Denver Center
Sun 11:26:16 AM 39.1842 -102.8619 294° West 417 480 34,000  Level Denver Center
Sun 11:27:18 AM 39.2128 -103.0081 284° West 417 480 34,000  Level Denver Center
Sun 11:28:20 AM 39.2414 -103.1556 284° West 419 482 34,000  Level Denver Center
Sun 11:29:22 AM 39.2706 -103.2992 285° West 413 475 34,000  Level Denver Center
Sun 11:30:23 AM 39.2933 -103.4197 284° West 412 474 34,000  Level Denver Center
Sun 11:31:26 AM 39.3256 -103.5872 284° West 408 470 34,000  Level Denver Center
Sun 11:32:28 AM 39.3572 -103.7556 284° West 409 471 34,000  Level Denver Center
Sun 11:33:30 AM 39.3847 -103.9003 284° West 411 473 34,000  Level Denver Center
Sun 11:34:32 AM 39.4117 -104.0469 283° West 415 478 34,000  Level Denver Center
Sun 11:35:33 AM 39.4392 -104.1906 284° West 409 471 34,000  Level Denver Center
Sun 11:36:35 AM 39.4656 -104.3333 284° West 402 463 34,000  Level Denver Center
Sun 11:37:37 AM 39.4922 -104.4758 284° West 403 464 34,000  Level Denver Center
Sun 11:38:39 AM 39.5189 -104.6189 284° West 401 461 34,000  Level Denver Center
Sun 11:39:41 AM 39.5431 -104.7683 282° West 413 475 34,000  Level Denver Center
Sun 11:40:55 AM 39.5700 -104.9122 284° West 397 457 34,000  Level Denver Center
Sun 11:41:57 AM 39.5992 -105.0786 283° West 401 461 34,000  Level Denver Center
Sun 11:42:59 AM 39.6289 -105.2439 283° West 397 457 34,000  Level Denver Center
Sun 11:44:01 AM 39.6528 -105.3881 282° West 403 464 34,000  Level Denver Center
Sun 11:45:03 AM 39.6778 -105.5306 283° West 401 461 34,000  Level Denver Center
Sun 11:46:05 AM 39.7028 -105.6775 283° West 412 474 34,000  Level Denver Center
Sun 11:47:07 AM 39.7267 -105.8250 282° West 412 474 34,000  Level Denver Center
Sun 11:48:09 AM 39.7542 -105.9700 284° West 412 474 34,000  Level Denver Center
Sun 11:49:11 AM 39.7789 -106.1181 282° West 414 476 34,000  Level Denver Center
Sun 11:50:13 AM 39.8033 -106.2631 282° West 409 471 34,000  Level Denver Center
Sun 11:51:15 AM 39.8311 -106.4333 282° West 409 471 34,000  Level Denver Center
Sun 11:52:16 AM 39.8517 -106.5556 282° West 410 472 34,000  Level Denver Center
Sun 11:53:30 AM 39.8800 -106.7275 282° West 408 470 34,000  Level Denver Center
Sun 11:54:33 AM 39.9078 -106.8997 282° West 409 471 34,000  Level Denver Center
Sun 11:55:34 AM 39.9261 -107.0142 282° West 407 468 34,000  Level Denver Center
Sun 11:56:37 AM 39.9536 -107.1894 282° West 404 465 34,000  Level Denver Center
Sun 11:57:39 AM 39.9794 -107.3508 282° West 406 467 34,000  Level Denver Center
Sun 11:58:41 AM 40.0014 -107.4889 282° West 408 470 34,000  Level Denver Center
Sun 11:59:43 AM 40.0250 -107.6500 281° West 407 468 34,000  Level Denver Center
Sun 12:00:45 PM 40.0467 -107.7872 282° West 403 464 34,000  Level Denver Center
Sun 12:01:47 PM 40.0683 -107.9503 280° West 407 468 34,000  Level Denver Center
Sun 12:02:49 PM 40.0744 -108.0903 273° West 408 470 34,000  Level Denver Center
Sun 12:03:51 PM 40.0825 -108.2539 274° West 406 467 34,000  Level Denver Center
Sun 12:04:53 PM 40.0889 -108.3950 273° West 407 468 34,000  Level Denver Center
Sun 12:05:55 PM 40.0958 -108.5575 273° West 404 465 34,000  Level Denver Center
Sun 12:06:57 PM 40.1014 -108.6953 273° West 400 460 34,000  Level Denver Center
Sun 12:07:59 PM 40.1078 -108.8572 273° West 401 461 34,000  Level Denver Center
Sun 12:08:45 PM 40.1111 -108.9497 273° West 400 460 34,000  Level Salt Lake Center
Sun 12:09:47 PM 40.1172 -109.1089 273° West 397 457 34,000  Level Salt Lake Center
Sun 12:10:03 PM 40.1186 -109.1533 272° West 395 455 34,000  Level Denver Center
Sun 12:11:05 PM 40.1231 -109.2914 272° West 395 455 34,000  Level Denver Center
Sun 12:11:50 PM 40.1267 -109.4050 272° West 394 453 34,000  Level Salt Lake Center
Sun 12:12:51 PM 40.1317 -109.5408 273° West 393 452 34,000  Level Salt Lake Center
Sun 12:13:53 PM 40.1369 -109.6989 273° West 390 449 34,000  Level Salt Lake Center
Sun 12:14:55 PM 40.1403 -109.8350 272° West 392 451 34,000 -293 Level Salt Lake Center
Sun 12:15:56 PM 40.1450 -109.9692 273° West 389 448 33,400 -1,122 Descending Salt Lake Center
Sun 12:16:58 PM 40.1492 -110.1306 272° West 397 457 31,700 -1,512 Descending Salt Lake Center
Sun 12:17:59 PM 40.1494 -110.2775 270° West 416 479 30,300 -829 Descending Salt Lake Center
Sun 12:19:01 PM 40.1475 -110.4464 269° West 417 480 30,000 -634 Descending Salt Lake Center
Sun 12:20:02 PM 40.1456 -110.5886 269° West 412 474 29,000 -1,415 Descending Salt Lake Center
Sun 12:21:04 PM 40.1433 -110.7561 269° West 412 474 27,100 -1,707 Descending Salt Lake Center
Sun 12:22:05 PM 40.1422 -110.8969 269° West 408 470 25,500 -1,610 Descending Salt Lake Center
Sun 12:23:07 PM 40.1411 -111.0411 269° West 406 467 23,800 -1,645 Descending Salt Lake Center
Sun 12:24:09 PM 40.1386 -111.1869 269° West 401 461 22,100 -1,659 Descending Salt Lake Center
Sun 12:25:10 PM 40.1367 -111.3294 269° West 395 455 20,400 -1,787 Descending Salt Lake Center
Sun 12:25:43 PM 40.1283 -111.4331 264° West 392 451 19,300 -1,355 Descending Salt Lake Center
Sun 12:26:12 PM 40.1336 -111.4711 280° West 391 450 19,000 -200 Descending Salt Lake Center
Sun 12:27:13 PM 40.1711 -111.6336 287° West 393 452 19,000 -545 Level Salt Lake Center
Sun 12:28:02 PM 40.2403 -111.7094 320° Northwest 391 450 18,000 -1,527 Descending Salt Lake Center
Sun 12:29:03 PM 40.3281 -111.7919 324° Northwest 386 444 16,200 -1,884 Descending Salt Lake Center
Sun 12:30:03 PM 40.4131 -111.8731 324° Northwest 381 438 14,200 -1,840 Descending Salt Lake Center
Sun 12:30:18 PM 40.4303 -111.8819 339° North 378 435 13,900 -1,770 Descending Salt Lake Center
Sun 12:31:04 PM 40.5000 -111.9533 322° Northwest 375 432 12,400 -1,645 Descending Salt Lake Center
Sun 12:31:20 PM 40.5142 -111.9622 334° Northwest 372 428 12,200 -1,377 Descending Salt Lake Center
Sun 12:32:05 PM 40.5850 -112.0347 322° Northwest 369 425 11,000 -1,180 Descending Salt Lake Center
Sun 12:32:21 PM 40.5972 -112.0411 338° Northwest 367 422 11,000  Level Salt Lake Center
Sun 12:32:59 PM 40.6544 -112.0819 332° Northwest 307 353 11,000  Level Salt Lake Center
Sun 12:33:23 PM 40.6750 -112.0819 360° North 297 342 11,000  Level Salt Lake Center
Sun 12:34:00 PM 40.7272 -112.0911 352° North 250 288 11,000  Level Salt Lake Center
Sun 12:34:24 PM 40.7439 -112.0897 North 251 289 11,000 -90 Level Salt Lake Center
Sun 12:35:07 PM 40.7978 -112.0986 353° North 242 278 10,900 -387 Descending Salt Lake Center
Sun 12:35:26 PM 40.8103 -112.0972 North 240 276 10,600 -1,950 Descending Salt Lake Center
Sun 12:36:27 PM 40.8900 -112.0981 360° North 246 283 8,300 -2,262 Descending Salt Lake Center

Login

Don't have an account? Register now (free) for customized features, flight alerts, and more!